sensor_id;sensor_type;location;lat;lon;timestamp;P1;durP1;ratioP1;P2;durP2;ratioP2
24102;SDS011;12278;53.058;9.028;2023-05-07T00:02:25;13.30;;;10.80;;
24102;SDS011;12278;53.058;9.028;2023-05-07T00:06:33;14.77;;;11.30;;
24102;SDS011;12278;53.058;9.028;2023-05-07T00:10:33;13.73;;;10.95;;
24102;SDS011;12278;53.058;9.028;2023-05-07T00:14:34;13.55;;;11.27;;
24102;SDS011;12278;53.058;9.028;2023-05-07T00:18:35;14.13;;;11.30;;
24102;SDS011;12278;53.058;9.028;2023-05-07T00:22:35;14.27;;;11.25;;
24102;SDS011;12278;53.058;9.028;2023-05-07T00:26:36;14.73;;;12.15;;
24102;SDS011;12278;53.058;9.028;2023-05-07T00:30:37;15.13;;;11.95;;
24102;SDS011;12278;53.058;9.028;2023-05-07T00:34:40;16.27;;;13.57;;
24102;SDS011;12278;53.058;9.028;2023-05-07T00:38:40;15.65;;;12.02;;
24102;SDS011;12278;53.058;9.028;2023-05-07T00:42:41;16.08;;;12.07;;
24102;SDS011;12278;53.058;9.028;2023-05-07T00:46:47;15.70;;;12.88;;
24102;SDS011;12278;53.058;9.028;2023-05-07T00:50:54;14.35;;;11.20;;
24102;SDS011;12278;53.058;9.028;2023-05-07T00:54:55;15.45;;;11.73;;
24102;SDS011;12278;53.058;9.028;2023-05-07T00:58:55;13.57;;;11.48;;
24102;SDS011;12278;53.058;9.028;2023-05-07T01:02:56;13.18;;;10.77;;
24102;SDS011;12278;53.058;9.028;2023-05-07T01:06:57;14.50;;;11.88;;
24102;SDS011;12278;53.058;9.028;2023-05-07T01:11:01;14.38;;;11.40;;
24102;SDS011;12278;53.058;9.028;2023-05-07T01:15:02;12.50;;;10.68;;
24102;SDS011;12278;53.058;9.028;2023-05-07T01:19:05;14.95;;;10.73;;
24102;SDS011;12278;53.058;9.028;2023-05-07T01:23:06;14.15;;;11.20;;
24102;SDS011;12278;53.058;9.028;2023-05-07T01:27:18;15.25;;;11.40;;
24102;SDS011;12278;53.058;9.028;2023-05-07T01:31:19;14.10;;;11.35;;
24102;SDS011;12278;53.058;9.028;2023-05-07T01:35:22;12.43;;;10.02;;
24102;SDS011;12278;53.058;9.028;2023-05-07T01:39:25;12.80;;;9.80;;
24102;SDS011;12278;53.058;9.028;2023-05-07T01:43:29;12.73;;;10.75;;
24102;SDS011;12278;53.058;9.028;2023-05-07T01:47:30;14.90;;;11.45;;
24102;SDS011;12278;53.058;9.028;2023-05-07T01:51:31;11.93;;;10.40;;
24102;SDS011;12278;53.058;9.028;2023-05-07T01:55:33;15.83;;;11.37;;
24102;SDS011;12278;53.058;9.028;2023-05-07T01:59:34;15.32;;;10.88;;
24102;SDS011;12278;53.058;9.028;2023-05-07T02:03:34;13.27;;;9.80;;
24102;SDS011;12278;53.058;9.028;2023-05-07T02:07:35;14.07;;;10.65;;
24102;SDS011;12278;53.058;9.028;2023-05-07T02:11:36;14.73;;;10.85;;
24102;SDS011;12278;53.058;9.028;2023-05-07T02:15:37;13.13;;;11.18;;
24102;SDS011;12278;53.058;9.028;2023-05-07T02:19:38;15.18;;;10.73;;
24102;SDS011;12278;53.058;9.028;2023-05-07T02:23:38;15.93;;;11.93;;
24102;SDS011;12278;53.058;9.028;2023-05-07T02:27:39;12.90;;;10.95;;
24102;SDS011;12278;53.058;9.028;2023-05-07T02:31:40;15.60;;;11.45;;
24102;SDS011;12278;53.058;9.028;2023-05-07T02:35:40;15.38;;;10.82;;
24102;SDS011;12278;53.058;9.028;2023-05-07T02:39:41;13.93;;;11.27;;
24102;SDS011;12278;53.058;9.028;2023-05-07T02:43:42;13.52;;;10.98;;
24102;SDS011;12278;53.058;9.028;2023-05-07T02:47:42;17.30;;;10.95;;
24102;SDS011;12278;53.058;9.028;2023-05-07T02:51:43;16.83;;;10.85;;
24102;SDS011;12278;53.058;9.028;2023-05-07T02:55:44;14.13;;;10.95;;
24102;SDS011;12278;53.058;9.028;2023-05-07T02:59:44;15.30;;;11.60;;
24102;SDS011;12278;53.058;9.028;2023-05-07T03:03:45;15.27;;;11.93;;
24102;SDS011;12278;53.058;9.028;2023-05-07T03:07:45;13.75;;;10.63;;
24102;SDS011;12278;53.058;9.028;2023-05-07T03:11:47;15.52;;;11.88;;
24102;SDS011;12278;53.058;9.028;2023-05-07T03:15:48;14.27;;;10.95;;
24102;SDS011;12278;53.058;9.028;2023-05-07T03:19:48;17.25;;;11.50;;
24102;SDS011;12278;53.058;9.028;2023-05-07T03:23:49;16.52;;;11.27;;
24102;SDS011;12278;53.058;9.028;2023-05-07T03:27:50;13.20;;;11.23;;
24102;SDS011;12278;53.058;9.028;2023-05-07T03:31:50;12.65;;;10.35;;
24102;SDS011;12278;53.058;9.028;2023-05-07T03:35:51;16.38;;;11.23;;
24102;SDS011;12278;53.058;9.028;2023-05-07T03:39:51;13.10;;;9.57;;
24102;SDS011;12278;53.058;9.028;2023-05-07T03:43:52;16.15;;;10.93;;
24102;SDS011;12278;53.058;9.028;2023-05-07T03:47:53;14.30;;;11.13;;
24102;SDS011;12278;53.058;9.028;2023-05-07T03:51:53;17.05;;;11.10;;
24102;SDS011;12278;53.058;9.028;2023-05-07T03:55:54;12.45;;;9.38;;
24102;SDS011;12278;53.058;9.028;2023-05-07T03:59:55;17.38;;;12.05;;
24102;SDS011;12278;53.058;9.028;2023-05-07T04:03:55;13.88;;;10.65;;
24102;SDS011;12278;53.058;9.028;2023-05-07T04:07:59;12.80;;;10.63;;
24102;SDS011;12278;53.058;9.028;2023-05-07T04:12:00;13.75;;;9.98;;
24102;SDS011;12278;53.058;9.028;2023-05-07T04:16:02;13.70;;;9.32;;
24102;SDS011;12278;53.058;9.028;2023-05-07T04:20:04;12.15;;;9.63;;
24102;SDS011;12278;53.058;9.028;2023-05-07T04:24:07;11.20;;;8.32;;
24102;SDS011;12278;53.058;9.028;2023-05-07T04:28:07;12.45;;;9.32;;
24102;SDS011;12278;53.058;9.028;2023-05-07T04:32:09;13.35;;;9.07;;
24102;SDS011;12278;53.058;9.028;2023-05-07T04:36:10;12.80;;;9.10;;
24102;SDS011;12278;53.058;9.028;2023-05-07T04:40:11;13.25;;;9.48;;
24102;SDS011;12278;53.058;9.028;2023-05-07T04:44:13;11.63;;;9.45;;
24102;SDS011;12278;53.058;9.028;2023-05-07T04:48:16;11.20;;;9.43;;
24102;SDS011;12278;53.058;9.028;2023-05-07T04:52:19;11.68;;;9.00;;
24102;SDS011;12278;53.058;9.028;2023-05-07T04:56:20;11.65;;;9.35;;
24102;SDS011;12278;53.058;9.028;2023-05-07T05:00:20;10.93;;;8.65;;
24102;SDS011;12278;53.058;9.028;2023-05-07T05:04:28;9.80;;;8.48;;
24102;SDS011;12278;53.058;9.028;2023-05-07T05:08:29;11.07;;;8.90;;
24102;SDS011;12278;53.058;9.028;2023-05-07T05:16:32;11.20;;;8.60;;
24102;SDS011;12278;53.058;9.028;2023-05-07T05:20:34;9.82;;;7.90;;
24102;SDS011;12278;53.058;9.028;2023-05-07T05:24:35;10.60;;;8.93;;
24102;SDS011;12278;53.058;9.028;2023-05-07T05:28:35;10.30;;;8.32;;
24102;SDS011;12278;53.058;9.028;2023-05-07T05:32:37;8.27;;;7.00;;
24102;SDS011;12278;53.058;9.028;2023-05-07T05:36:38;9.20;;;6.95;;
24102;SDS011;12278;53.058;9.028;2023-05-07T05:52:46;7.63;;;6.40;;
24102;SDS011;12278;53.058;9.028;2023-05-07T05:56:47;7.55;;;6.72;;
24102;SDS011;12278;53.058;9.028;2023-05-07T09:54:59;10.60;;;9.10;;
24102;SDS011;12278;53.058;9.028;2023-05-07T09:59:02;7.82;;;7.03;;
24102;SDS011;12278;53.058;9.028;2023-05-07T10:03:05;7.18;;;6.30;;
24102;SDS011;12278;53.058;9.028;2023-05-07T10:07:08;7.85;;;6.07;;
24102;SDS011;12278;53.058;9.028;2023-05-07T10:11:09;7.40;;;6.22;;
24102;SDS011;12278;53.058;9.028;2023-05-07T10:15:12;8.23;;;6.70;;
24102;SDS011;12278;53.058;9.028;2023-05-07T10:19:15;7.45;;;6.63;;
24102;SDS011;12278;53.058;9.028;2023-05-07T10:27:23;7.07;;;6.30;;
24102;SDS011;12278;53.058;9.028;2023-05-07T10:35:58;8.77;;;6.40;;
24102;SDS011;12278;53.058;9.028;2023-05-07T10:40:00;7.53;;;6.40;;
24102;SDS011;12278;53.058;9.028;2023-05-07T10:44:01;7.18;;;6.45;;
24102;SDS011;12278;53.058;9.028;2023-05-07T10:52:13;7.05;;;6.18;;
24102;SDS011;12278;53.058;9.028;2023-05-07T11:04:23;8.45;;;5.82;;
24102;SDS011;12278;53.058;9.028;2023-05-07T11:08:32;6.88;;;6.25;;
24102;SDS011;12278;53.058;9.028;2023-05-07T11:12:54;7.88;;;5.82;;
24102;SDS011;12278;53.058;9.028;2023-05-07T11:17:01;8.00;;;6.65;;
24102;SDS011;12278;53.058;9.028;2023-05-07T11:21:03;6.20;;;5.60;;
24102;SDS011;12278;53.058;9.028;2023-05-07T11:25:04;7.32;;;6.32;;
24102;SDS011;12278;53.058;9.028;2023-05-07T11:29:10;7.43;;;6.63;;
24102;SDS011;12278;53.058;9.028;2023-05-07T11:33:11;6.32;;;5.82;;
24102;SDS011;12278;53.058;9.028;2023-05-07T11:37:16;6.90;;;6.20;;
24102;SDS011;12278;53.058;9.028;2023-05-07T11:41:17;6.95;;;6.20;;
24102;SDS011;12278;53.058;9.028;2023-05-07T11:45:23;6.50;;;5.80;;
24102;SDS011;12278;53.058;9.028;2023-05-07T11:49:27;6.03;;;5.18;;
24102;SDS011;12278;53.058;9.028;2023-05-07T11:53:33;6.47;;;5.88;;
24102;SDS011;12278;53.058;9.028;2023-05-07T11:57:36;6.20;;;5.60;;
24102;SDS011;12278;53.058;9.028;2023-05-07T12:01:36;5.70;;;5.20;;
24102;SDS011;12278;53.058;9.028;2023-05-07T12:05:37;8.98;;;5.20;;
24102;SDS011;12278;53.058;9.028;2023-05-07T12:09:42;7.38;;;6.00;;
24102;SDS011;12278;53.058;9.028;2023-05-07T12:13:43;6.05;;;5.55;;
24102;SDS011;12278;53.058;9.028;2023-05-07T12:17:44;5.82;;;5.32;;
24102;SDS011;12278;53.058;9.028;2023-05-07T12:21:44;6.15;;;5.22;;
24102;SDS011;12278;53.058;9.028;2023-05-07T12:25:45;5.53;;;5.03;;
24102;SDS011;12278;53.058;9.028;2023-05-07T12:29:49;5.75;;;5.28;;
24102;SDS011;12278;53.058;9.028;2023-05-07T12:33:50;5.55;;;5.05;;
24102;SDS011;12278;53.058;9.028;2023-05-07T12:37:55;6.43;;;5.25;;
24102;SDS011;12278;53.058;9.028;2023-05-07T12:41:59;5.25;;;4.82;;
24102;SDS011;12278;53.058;9.028;2023-05-07T12:46:01;5.50;;;4.75;;
24102;SDS011;12278;53.058;9.028;2023-05-07T12:50:06;5.07;;;4.22;;
24102;SDS011;12278;53.058;9.028;2023-05-07T12:54:07;4.90;;;4.50;;
24102;SDS011;12278;53.058;9.028;2023-05-07T12:58:07;5.25;;;4.80;;
24102;SDS011;12278;53.058;9.028;2023-05-07T13:02:08;4.85;;;4.45;;
24102;SDS011;12278;53.058;9.028;2023-05-07T13:06:09;5.45;;;4.95;;
24102;SDS011;12278;53.058;9.028;2023-05-07T13:10:12;4.72;;;4.22;;
24102;SDS011;12278;53.058;9.028;2023-05-07T13:14:12;5.28;;;4.78;;
24102;SDS011;12278;53.058;9.028;2023-05-07T13:18:13;5.65;;;5.15;;
24102;SDS011;12278;53.058;9.028;2023-05-07T13:22:14;4.95;;;4.40;;
24102;SDS011;12278;53.058;9.028;2023-05-07T13:26:14;6.47;;;5.32;;
24102;SDS011;12278;53.058;9.028;2023-05-07T13:30:15;5.80;;;5.30;;
24102;SDS011;12278;53.058;9.028;2023-05-07T13:34:16;6.38;;;5.25;;
24102;SDS011;12278;53.058;9.028;2023-05-07T13:38:18;5.45;;;4.97;;
24102;SDS011;12278;53.058;9.028;2023-05-07T13:42:21;11.43;;;8.38;;
24102;SDS011;12278;53.058;9.028;2023-05-07T13:46:22;4.38;;;4.07;;
24102;SDS011;12278;53.058;9.028;2023-05-07T13:50:22;7.85;;;6.68;;
24102;SDS011;12278;53.058;9.028;2023-05-07T13:54:23;7.38;;;6.68;;
24102;SDS011;12278;53.058;9.028;2023-05-07T13:58:23;5.30;;;4.82;;
24102;SDS011;12278;53.058;9.028;2023-05-07T14:02:24;7.25;;;5.47;;
24102;SDS011;12278;53.058;9.028;2023-05-07T14:06:25;5.65;;;4.80;;
24102;SDS011;12278;53.058;9.028;2023-05-07T14:10:27;5.07;;;4.65;;
24102;SDS011;12278;53.058;9.028;2023-05-07T14:14:28;5.63;;;4.65;;
24102;SDS011;12278;53.058;9.028;2023-05-07T14:18:30;5.05;;;4.22;;
24102;SDS011;12278;53.058;9.028;2023-05-07T14:22:30;5.13;;;4.63;;
24102;SDS011;12278;53.058;9.028;2023-05-07T14:26:31;5.72;;;4.78;;
24102;SDS011;12278;53.058;9.028;2023-05-07T14:30:32;5.45;;;4.95;;
24102;SDS011;12278;53.058;9.028;2023-05-07T14:34:33;4.88;;;4.32;;
24102;SDS011;12278;53.058;9.028;2023-05-07T14:38:34;5.28;;;4.78;;
24102;SDS011;12278;53.058;9.028;2023-05-07T14:42:35;4.88;;;4.40;;
24102;SDS011;12278;53.058;9.028;2023-05-07T14:51:05;4.35;;;3.95;;
24102;SDS011;12278;53.058;9.028;2023-05-07T14:55:07;4.70;;;4.30;;
24102;SDS011;12278;53.058;9.028;2023-05-07T14:59:08;4.43;;;4.07;;
24102;SDS011;12278;53.058;9.028;2023-05-07T15:03:10;4.88;;;4.47;;
24102;SDS011;12278;53.058;9.028;2023-05-07T15:07:11;4.55;;;4.15;;
24102;SDS011;12278;53.058;9.028;2023-05-07T15:11:15;5.95;;;4.43;;
24102;SDS011;12278;53.058;9.028;2023-05-07T15:15:17;4.63;;;4.22;;
24102;SDS011;12278;53.058;9.028;2023-05-07T15:19:18;4.20;;;3.80;;
24102;SDS011;12278;53.058;9.028;2023-05-07T15:23:18;4.60;;;4.13;;
24102;SDS011;12278;53.058;9.028;2023-05-07T15:27:19;5.40;;;4.13;;
24102;SDS011;12278;53.058;9.028;2023-05-07T15:31:20;4.90;;;4.43;;
24102;SDS011;12278;53.058;9.028;2023-05-07T15:35:21;4.72;;;4.32;;
24102;SDS011;12278;53.058;9.028;2023-05-07T15:39:22;5.93;;;5.32;;
24102;SDS011;12278;53.058;9.028;2023-05-07T15:43:22;6.07;;;4.90;;
24102;SDS011;12278;53.058;9.028;2023-05-07T15:47:23;4.88;;;4.28;;
24102;SDS011;12278;53.058;9.028;2023-05-07T15:51:23;4.95;;;4.53;;
24102;SDS011;12278;53.058;9.028;2023-05-07T15:55:24;8.90;;;5.07;;
24102;SDS011;12278;53.058;9.028;2023-05-07T15:59:25;5.30;;;4.80;;
24102;SDS011;12278;53.058;9.028;2023-05-07T16:03:26;5.03;;;4.60;;
24102;SDS011;12278;53.058;9.028;2023-05-07T16:07:27;7.57;;;4.70;;
24102;SDS011;12278;53.058;9.028;2023-05-07T16:11:28;5.93;;;4.90;;
24102;SDS011;12278;53.058;9.028;2023-05-07T16:15:32;4.40;;;4.00;;
24102;SDS011;12278;53.058;9.028;2023-05-07T16:19:33;5.28;;;3.95;;
24102;SDS011;12278;53.058;9.028;2023-05-07T16:23:34;3.80;;;3.50;;
24102;SDS011;12278;53.058;9.028;2023-05-07T16:27:35;5.28;;;4.25;;
24102;SDS011;12278;53.058;9.028;2023-05-07T16:31:37;4.65;;;4.18;;
24102;SDS011;12278;53.058;9.028;2023-05-07T16:35:37;4.18;;;3.78;;
24102;SDS011;12278;53.058;9.028;2023-05-07T16:39:38;4.22;;;3.60;;
24102;SDS011;12278;53.058;9.028;2023-05-07T16:43:41;3.95;;;3.65;;
24102;SDS011;12278;53.058;9.028;2023-05-07T16:47:43;4.20;;;3.80;;
24102;SDS011;12278;53.058;9.028;2023-05-07T16:51:45;4.25;;;3.95;;
24102;SDS011;12278;53.058;9.028;2023-05-07T16:55:46;4.43;;;3.65;;
24102;SDS011;12278;53.058;9.028;2023-05-07T16:59:46;3.90;;;3.60;;
24102;SDS011;12278;53.058;9.028;2023-05-07T17:03:48;4.10;;;3.70;;
24102;SDS011;12278;53.058;9.028;2023-05-07T17:07:49;4.82;;;4.32;;
24102;SDS011;12278;53.058;9.028;2023-05-07T17:11:50;4.63;;;4.10;;
24102;SDS011;12278;53.058;9.028;2023-05-07T17:15:53;3.92;;;3.53;;
24102;SDS011;12278;53.058;9.028;2023-05-07T17:19:54;5.03;;;3.50;;
24102;SDS011;12278;53.058;9.028;2023-05-07T17:23:55;4.05;;;3.65;;
24102;SDS011;12278;53.058;9.028;2023-05-07T17:27:55;4.20;;;3.80;;
24102;SDS011;12278;53.058;9.028;2023-05-07T17:31:56;4.53;;;4.13;;
24102;SDS011;12278;53.058;9.028;2023-05-07T17:35:56;4.43;;;3.80;;
24102;SDS011;12278;53.058;9.028;2023-05-07T17:39:57;4.10;;;3.50;;
24102;SDS011;12278;53.058;9.028;2023-05-07T17:43:57;4.28;;;3.88;;
24102;SDS011;12278;53.058;9.028;2023-05-07T17:47:58;4.82;;;4.18;;
24102;SDS011;12278;53.058;9.028;2023-05-07T17:56:04;3.75;;;3.38;;
24102;SDS011;12278;53.058;9.028;2023-05-07T18:00:06;4.68;;;4.20;;
24102;SDS011;12278;53.058;9.028;2023-05-07T18:04:07;4.88;;;3.70;;
24102;SDS011;12278;53.058;9.028;2023-05-07T18:08:08;4.95;;;4.45;;
24102;SDS011;12278;53.058;9.028;2023-05-07T18:12:09;5.00;;;4.53;;
24102;SDS011;12278;53.058;9.028;2023-05-07T18:16:12;4.50;;;4.10;;
24102;SDS011;12278;53.058;9.028;2023-05-07T18:20:13;3.83;;;3.53;;
24102;SDS011;12278;53.058;9.028;2023-05-07T18:24:14;4.20;;;3.80;;
24102;SDS011;12278;53.058;9.028;2023-05-07T18:28:15;4.15;;;3.78;;
24102;SDS011;12278;53.058;9.028;2023-05-07T18:32:16;4.90;;;4.50;;
24102;SDS011;12278;53.058;9.028;2023-05-07T18:36:16;4.50;;;4.10;;
24102;SDS011;12278;53.058;9.028;2023-05-07T18:40:17;3.85;;;3.55;;
24102;SDS011;12278;53.058;9.028;2023-05-07T18:44:19;4.35;;;3.95;;
24102;SDS011;12278;53.058;9.028;2023-05-07T18:48:20;4.18;;;3.78;;
24102;SDS011;12278;53.058;9.028;2023-05-07T18:52:21;4.40;;;4.03;;
24102;SDS011;12278;53.058;9.028;2023-05-07T18:56:21;4.10;;;3.80;;
24102;SDS011;12278;53.058;9.028;2023-05-07T19:00:22;4.65;;;3.72;;
24102;SDS011;12278;53.058;9.028;2023-05-07T19:04:23;4.55;;;4.07;;
24102;SDS011;12278;53.058;9.028;2023-05-07T19:08:23;4.50;;;4.10;;
24102;SDS011;12278;53.058;9.028;2023-05-07T19:12:24;4.13;;;3.80;;
24102;SDS011;12278;53.058;9.028;2023-05-07T19:16:24;4.03;;;3.58;;
24102;SDS011;12278;53.058;9.028;2023-05-07T19:20:25;4.90;;;3.80;;
24102;SDS011;12278;53.058;9.028;2023-05-07T19:24:26;4.20;;;3.90;;
24102;SDS011;12278;53.058;9.028;2023-05-07T19:28:26;5.13;;;4.57;;
24102;SDS011;12278;53.058;9.028;2023-05-07T19:32:27;5.85;;;4.65;;
24102;SDS011;12278;53.058;9.028;2023-05-07T19:36:31;5.38;;;4.88;;
24102;SDS011;12278;53.058;9.028;2023-05-07T19:40:33;5.82;;;5.22;;
24102;SDS011;12278;53.058;9.028;2023-05-07T19:44:34;6.10;;;5.40;;
24102;SDS011;12278;53.058;9.028;2023-05-07T19:48:34;5.43;;;4.93;;
24102;SDS011;12278;53.058;9.028;2023-05-07T19:52:38;5.47;;;4.75;;
24102;SDS011;12278;53.058;9.028;2023-05-07T19:56:39;5.15;;;4.70;;
24102;SDS011;12278;53.058;9.028;2023-05-07T20:00:40;5.10;;;4.60;;
24102;SDS011;12278;53.058;9.028;2023-05-07T20:04:44;5.28;;;4.78;;
24102;SDS011;12278;53.058;9.028;2023-05-07T20:08:45;6.07;;;5.38;;
24102;SDS011;12278;53.058;9.028;2023-05-07T20:12:45;5.23;;;4.73;;
24102;SDS011;12278;53.058;9.028;2023-05-07T20:16:46;5.13;;;4.53;;
24102;SDS011;12278;53.058;9.028;2023-05-07T20:20:47;5.50;;;4.97;;
24102;SDS011;12278;53.058;9.028;2023-05-07T20:24:47;6.25;;;5.38;;
24102;SDS011;12278;53.058;9.028;2023-05-07T20:28:48;5.75;;;5.22;;
24102;SDS011;12278;53.058;9.028;2023-05-07T20:32:49;5.25;;;4.80;;
24102;SDS011;12278;53.058;9.028;2023-05-07T20:36:50;6.47;;;4.97;;
24102;SDS011;12278;53.058;9.028;2023-05-07T20:40:51;5.32;;;4.88;;
24102;SDS011;12278;53.058;9.028;2023-05-07T20:44:51;5.72;;;5.13;;
24102;SDS011;12278;53.058;9.028;2023-05-07T20:48:52;6.50;;;5.80;;
24102;SDS011;12278;53.058;9.028;2023-05-07T20:52:53;5.55;;;5.05;;
24102;SDS011;12278;53.058;9.028;2023-05-07T20:56:54;5.57;;;5.07;;
24102;SDS011;12278;53.058;9.028;2023-05-07T21:00:55;6.68;;;5.97;;
24102;SDS011;12278;53.058;9.028;2023-05-07T21:04:56;5.18;;;4.57;;
24102;SDS011;12278;53.058;9.028;2023-05-07T21:08:57;6.32;;;5.40;;
24102;SDS011;12278;53.058;9.028;2023-05-07T21:12:57;7.43;;;5.35;;
24102;SDS011;12278;53.058;9.028;2023-05-07T21:16:58;5.13;;;4.63;;
24102;SDS011;12278;53.058;9.028;2023-05-07T21:20:59;6.43;;;5.82;;
24102;SDS011;12278;53.058;9.028;2023-05-07T21:24:59;5.97;;;5.05;;
24102;SDS011;12278;53.058;9.028;2023-05-07T21:29:00;5.55;;;5.05;;
24102;SDS011;12278;53.058;9.028;2023-05-07T21:33:01;5.70;;;5.20;;
24102;SDS011;12278;53.058;9.028;2023-05-07T21:37:01;5.38;;;4.97;;
24102;SDS011;12278;53.058;9.028;2023-05-07T21:41:03;5.53;;;4.80;;
24102;SDS011;12278;53.058;9.028;2023-05-07T21:45:04;5.90;;;5.07;;
24102;SDS011;12278;53.058;9.028;2023-05-07T21:49:05;5.38;;;4.88;;
24102;SDS011;12278;53.058;9.028;2023-05-07T21:53:05;5.07;;;4.68;;
24102;SDS011;12278;53.058;9.028;2023-05-07T21:57:06;5.55;;;4.97;;
24102;SDS011;12278;53.058;9.028;2023-05-07T22:01:07;5.80;;;4.68;;
24102;SDS011;12278;53.058;9.028;2023-05-07T22:05:11;5.38;;;4.88;;
24102;SDS011;12278;53.058;9.028;2023-05-07T22:09:12;6.82;;;5.47;;
24102;SDS011;12278;53.058;9.028;2023-05-07T22:13:14;6.35;;;5.15;;
24102;SDS011;12278;53.058;9.028;2023-05-07T22:17:15;6.03;;;5.40;;
24102;SDS011;12278;53.058;9.028;2023-05-07T22:21:16;5.78;;;5.28;;
24102;SDS011;12278;53.058;9.028;2023-05-07T22:25:16;5.45;;;5.05;;
24102;SDS011;12278;53.058;9.028;2023-05-07T22:29:17;4.97;;;4.57;;
24102;SDS011;12278;53.058;9.028;2023-05-07T22:33:19;6.05;;;5.43;;
24102;SDS011;12278;53.058;9.028;2023-05-07T22:37:20;6.00;;;5.50;;
24102;SDS011;12278;53.058;9.028;2023-05-07T22:41:21;5.80;;;4.80;;
24102;SDS011;12278;53.058;9.028;2023-05-07T22:45:22;5.25;;;4.75;;
24102;SDS011;12278;53.058;9.028;2023-05-07T22:49:23;6.55;;;5.55;;
24102;SDS011;12278;53.058;9.028;2023-05-07T22:53:23;6.53;;;4.85;;
24102;SDS011;12278;53.058;9.028;2023-05-07T22:57:24;6.25;;;5.30;;
24102;SDS011;12278;53.058;9.028;2023-05-07T23:01:27;5.78;;;4.88;;
24102;SDS011;12278;53.058;9.028;2023-05-07T23:05:27;5.82;;;5.00;;
24102;SDS011;12278;53.058;9.028;2023-05-07T23:09:28;5.32;;;4.82;;
24102;SDS011;12278;53.058;9.028;2023-05-07T23:13:29;5.40;;;4.90;;
24102;SDS011;12278;53.058;9.028;2023-05-07T23:17:29;6.38;;;5.03;;
24102;SDS011;12278;53.058;9.028;2023-05-07T23:21:32;5.70;;;5.18;;
24102;SDS011;12278;53.058;9.028;2023-05-07T23:25:32;5.17;;;4.70;;
24102;SDS011;12278;53.058;9.028;2023-05-07T23:29:33;5.47;;;4.78;;
24102;SDS011;12278;53.058;9.028;2023-05-07T23:33:34;5.70;;;4.88;;
24102;SDS011;12278;53.058;9.028;2023-05-07T23:37:35;6.18;;;4.95;;
24102;SDS011;12278;53.058;9.028;2023-05-07T23:41:36;7.10;;;5.32;;
24102;SDS011;12278;53.058;9.028;2023-05-07T23:45:37;9.90;;;6.85;;
24102;SDS011;12278;53.058;9.028;2023-05-07T23:49:37;8.50;;;6.85;;
24102;SDS011;12278;53.058;9.028;2023-05-07T23:53:38;9.38;;;6.22;;
24102;SDS011;12278;53.058;9.028;2023-05-07T23:57:38;9.13;;;6.85;;
